Time;durP1;ratioP1;P1;durP2;ratioP2;P2;SDS_P1;SDS_P2;PMS_P1;PMS_P2;Temp;Humidity;BMP_temperature;BMP_pressure;BME280_temperature;BME280_humidity;BME280_pressure;Samples;Min_cycle;Max_cycle;Signal;HPM_P1;HPM_P2
2023/01/09 00:01:28;;;;;;;11.77;4.10;;;;;;;-12.69;67.16;101096.53;5079285;28;20079;-44
2023/01/09 00:04:13;;;;;;;6.97;3.28;;;;;;;-12.72;67.91;101116.34;5079752;28;20129;-45
2023/01/09 00:06:58;;;;;;;14.43;4.43;;;;;;;-12.79;67.27;101111.56;5076520;28;20055;-44
2023/01/09 00:09:42;;;;;;;12.88;4.93;;;;;;;-12.85;67.25;101106.06;5073890;28;20453;-44
2023/01/09 00:12:27;;;;;;;10.95;4.47;;;;;;;-12.90;67.72;101101.56;5087938;28;20043;-44
2023/01/09 00:15:11;;;;;;;14.00;4.47;;;;;;;-12.93;67.56;101111.34;5073258;28;20045;-44
2023/01/09 00:17:38;;;;;;;7.82;4.15;;;;;;;-12.97;67.66;101108.47;5056318;28;20157;-43
2023/01/09 00:20:41;;;;;;;15.02;4.60;;;;;;;-12.97;67.98;101111.84;5078850;28;20135;-44
2023/01/09 00:23:25;;;;;;;12.25;4.30;;;;;;;-12.95;68.05;101116.97;5072526;28;20086;-42
2023/01/09 00:26:29;;;;;;;9.80;4.50;;;;;;;-12.84;68.60;101121.22;5062701;28;20037;-44
2023/01/09 00:29:33;;;;;;;9.18;3.63;;;;;;;-12.71;68.24;101121.44;5095315;27;20036;-44
2023/01/09 00:32:37;;;;;;;10.48;4.18;;;;;;;-12.62;68.31;101112.19;5085196;28;20130;-42
2023/01/09 00:35:40;;;;;;;13.68;5.45;;;;;;;-12.61;68.17;101120.56;5115877;27;20073;-44
2023/01/09 00:38:24;;;;;;;13.52;4.90;;;;;;;-12.49;67.95;101119.91;5084922;28;20497;-43
2023/01/09 00:41:29;;;;;;;11.45;4.63;;;;;;;-12.38;68.07;101119.88;5085776;28;20546;-44
2023/01/09 00:43:58;;;;;;;9.13;3.70;;;;;;;-12.29;67.91;101115.56;5082015;28;20161;-41
2023/01/09 00:47:03;;;;;;;9.93;4.15;;;;;;;-12.21;67.68;101107.06;5076357;28;20097;-42
2023/01/09 00:50:06;;;;;;;8.95;4.72;;;;;;;-12.19;67.78;101115.53;5079119;28;20039;-43
2023/01/09 00:52:51;;;;;;;12.27;4.32;;;;;;;-12.14;67.29;101104.28;5110086;28;20086;-42
2023/01/09 00:55:56;;;;;;;12.63;4.32;;;;;;;-12.08;67.45;101105.59;5108599;28;20043;-44
2023/01/09 00:58:41;;;;;;;11.43;4.35;;;;;;;-11.97;67.59;101110.56;5108378;28;20043;-42
2023/01/09 01:01:06;;;;;;;11.38;4.07;;;;;;;-11.93;66.89;101095.03;5108348;28;20052;-43
2023/01/09 01:03:51;;;;;;;10.73;4.90;;;;;;;-11.85;67.31;101109.00;5100752;28;20032;-43
2023/01/09 01:09:39;;;;;;;22.58;4.90;;;;;;;-11.85;67.06;101089.84;5089108;28;20047;-41
2023/01/09 01:12:42;;;;;;;15.95;5.28;;;;;;;-11.75;66.68;101099.81;5094250;28;20109;-44
2023/01/09 01:15:30;;;;;;;11.43;5.28;;;;;;;-11.64;66.85;101109.00;5100199;28;20040;-43
2023/01/09 01:17:56;;;;;;;16.27;5.18;;;;;;;-11.56;66.50;101107.03;5106220;28;20086;-43
2023/01/09 01:20:42;;;;;;;11.60;5.38;;;;;;;-11.51;66.83;101110.78;5099248;28;20044;-42
2023/01/09 01:23:26;;;;;;;14.68;5.90;;;;;;;-11.69;66.66;101077.66;5106287;28;20047;-42
2023/01/09 01:25:52;;;;;;;17.27;6.43;;;;;;;-11.49;66.86;101109.25;5106401;28;20094;-42
2023/01/09 01:28:18;;;;;;;17.48;6.40;;;;;;;-11.48;66.59;101111.03;5102280;28;20039;-42
2023/01/09 01:31:03;;;;;;;15.75;5.80;;;;;;;-11.44;65.97;101113.00;5090732;28;20504;-43
2023/01/09 01:33:47;;;;;;;14.07;5.97;;;;;;;-11.43;65.77;101114.75;5075524;28;20040;-43
2023/01/09 01:36:32;;;;;;;12.75;5.65;;;;;;;-11.41;65.91;101125.78;5084512;28;20067;-42
2023/01/09 01:39:17;;;;;;;12.65;4.82;;;;;;;-11.39;65.74;101126.75;5086155;28;20039;-42
2023/01/09 01:42:20;;;;;;;18.40;4.80;;;;;;;-11.48;65.69;101126.06;5102340;28;20039;-42
2023/01/09 01:45:27;;;;;;;14.60;5.65;;;;;;;-11.53;65.19;101123.97;5089188;28;20047;-41
2023/01/09 01:48:18;;;;;;;16.80;6.22;;;;;;;-11.60;64.64;101126.00;5067236;28;20093;-43
2023/01/09 01:51:15;;;;;;;15.63;5.90;;;;;;;-11.65;64.61;101126.41;5086072;28;20047;-42
2023/01/09 01:54:22;;;;;;;17.80;5.53;;;;;;;-11.74;64.51;101134.16;5099465;28;20511;-43
2023/01/09 01:57:06;;;;;;;22.63;6.33;;;;;;;-11.78;64.17;101133.81;5087422;28;20131;-42
2023/01/09 01:59:54;;;;;;;18.45;6.03;;;;;;;-11.86;63.79;101143.25;5088699;28;20050;-42
2023/01/09 02:02:38;;;;;;;15.65;5.80;;;;;;;-12.04;63.57;101134.31;5068256;28;20056;-43
2023/01/09 02:05:42;;;;;;;16.23;5.75;;;;;;;-12.22;64.18;101146.25;5052152;28;20135;-43
2023/01/09 02:08:08;;;;;;;14.85;6.00;;;;;;;-12.40;63.17;101148.97;5092457;28;20040;-44
2023/01/09 02:11:13;;;;;;;18.67;6.95;;;;;;;-12.56;63.96;101147.72;5104712;28;20047;-43
2023/01/09 02:13:39;;;;;;;14.30;5.20;;;;;;;-12.65;63.26;101146.09;5068019;28;20496;-45
2023/01/09 02:16:30;;;;;;;16.27;6.32;;;;;;;-12.74;63.57;101132.84;5107101;28;20040;-42
2023/01/09 02:19:37;;;;;;;14.25;6.32;;;;;;;-12.83;63.75;101143.00;5111732;28;20134;-42
2023/01/09 02:22:25;;;;;;;16.05;5.28;;;;;;;-12.88;63.45;101137.63;5056018;28;20090;-43
2023/01/09 02:25:22;;;;;;;14.80;6.18;;;;;;;-12.89;63.82;101145.00;5094877;28;20157;-42
2023/01/09 02:28:29;;;;;;;12.53;5.77;;;;;;;-13.29;64.04;101105.88;5087802;28;20036;-43
2023/01/09 02:31:45;;;;;;;13.25;4.95;;;;;;;-13.28;63.95;101144.25;5078971;28;20295;-42
2023/01/09 02:34:35;;;;;;;11.55;5.47;;;;;;;-13.44;63.74;101140.50;5111363;28;20035;-43
2023/01/09 02:37:20;;;;;;;19.52;5.85;;;;;;;-13.56;63.70;101144.50;5104107;28;20042;-42
2023/01/09 02:40:27;;;;;;;12.95;5.32;;;;;;;-13.71;63.76;101150.72;5092480;28;20043;-42
2023/01/09 02:43:11;;;;;;;14.45;4.97;;;;;;;-13.78;63.60;101153.44;5097489;28;20459;-43
2023/01/09 02:46:14;;;;;;;18.00;5.75;;;;;;;-13.89;63.90;101152.50;5081605;28;20044;-43
2023/01/09 02:48:59;;;;;;;11.68;5.10;;;;;;;-13.90;63.63;101159.88;5093118;28;20024;-42
2023/01/09 02:51:37;;;;;;;10.13;4.50;;;;;;;-13.97;64.37;101157.63;5101503;28;20042;-42
2023/01/09 02:54:52;;;;;;;19.70;5.75;;;;;;;-13.95;64.43;101161.09;5111067;28;20127;-43
2023/01/09 02:57:56;;;;;;;11.95;4.20;;;;;;;-13.92;63.44;101161.38;5076775;28;20636;-42
2023/01/09 03:01:15;;;;;;;11.73;4.10;;;;;;;-13.96;63.23;101161.84;5091512;28;20420;-43
2023/01/09 03:04:26;;;;;;;13.02;4.15;;;;;;;-13.99;63.66;101161.59;5091775;28;20043;-41
2023/01/09 03:07:28;;;;;;;14.05;5.50;;;;;;;-14.01;63.69;101168.94;5105252;28;20043;-43
2023/01/09 03:10:20;;;;;;;8.52;3.55;;;;;;;-14.05;63.47;101168.56;5110885;28;20050;-41
2023/01/09 03:13:23;;;;;;;15.02;5.30;;;;;;;-14.02;64.42;101172.19;5096382;28;20130;-43
2023/01/09 03:16:10;;;;;;;9.85;4.20;;;;;;;-14.01;63.83;101173.06;5111094;28;20116;-42
2023/01/09 03:19:13;;;;;;;17.90;4.95;;;;;;;-14.14;62.96;101166.16;5110489;28;20066;-43
2023/01/09 03:22:17;;;;;;;13.05;5.88;;;;;;;-14.28;63.72;101174.94;5095647;28;20511;-43
2023/01/09 03:25:01;;;;;;;11.10;4.63;;;;;;;-14.26;63.22;101167.59;5092238;28;20043;-42
2023/01/09 03:27:49;;;;;;;15.68;5.10;;;;;;;-14.24;63.14;101176.97;5091018;28;20036;-42
2023/01/09 03:30:34;;;;;;;14.13;4.65;;;;;;;-14.22;64.26;101179.59;5106176;28;20694;-42
2023/01/09 03:33:19;;;;;;;6.93;4.03;;;;;;;-14.33;63.97;101178.66;5082664;28;20047;-42
2023/01/09 03:36:22;;;;;;;14.98;5.25;;;;;;;-14.40;63.69;101183.03;5109353;28;20096;-43
2023/01/09 03:39:06;;;;;;;10.85;4.18;;;;;;;-14.63;63.31;101144.44;5082727;28;20044;-43
2023/01/09 03:41:32;;;;;;;14.63;4.47;;;;;;;-14.60;63.89;101147.97;5105099;28;20501;-42
2023/01/09 03:44:16;;;;;;;10.73;4.90;;;;;;;-14.30;63.13;101188.03;5111323;28;20084;-42
2023/01/09 03:46:48;;;;;;;12.63;4.50;;;;;;;-14.20;63.60;101188.09;5090576;28;20048;-43
2023/01/09 03:49:16;;;;;;;12.43;4.90;;;;;;;-14.12;63.32;101183.75;5072150;28;20423;-42
2023/01/09 03:52:38;;;;;;;16.23;5.72;;;;;;;-14.00;63.54;101180.69;5087988;28;20530;-41
2023/01/09 03:55:48;;;;;;;16.55;6.43;;;;;;;-14.03;63.55;101182.06;5089423;28;20040;-43
2023/01/09 03:58:15;;;;;;;9.30;4.05;;;;;;;-14.03;62.99;101182.94;5070551;28;20059;-43
2023/01/09 04:01:37;;;;;;;11.00;5.22;;;;;;;-14.00;63.75;101188.19;5068860;28;20067;-43
2023/01/09 04:04:21;;;;;;;14.88;5.03;;;;;;;-14.11;63.60;101183.00;5070565;28;20043;-42
2023/01/09 04:07:43;;;;;;;13.77;4.90;;;;;;;-14.15;63.64;101194.38;5092497;28;20694;-42
2023/01/09 04:10:49;;;;;;;19.25;6.05;;;;;;;-14.26;63.49;101200.06;5089242;28;20079;-43
2023/01/09 04:13:34;;;;;;;18.60;5.53;;;;;;;-14.33;63.10;101191.13;5097207;28;20055;-43
2023/01/09 04:16:18;;;;;;;14.60;5.75;;;;;;;-14.31;63.70;101194.66;5102762;28;20051;-43
2023/01/09 04:18:47;;;;;;;21.13;6.10;;;;;;;-14.49;64.24;101152.25;5102823;28;20054;-42
2023/01/09 04:21:31;;;;;;;15.68;5.63;;;;;;;-14.17;63.44;101193.34;5096603;28;20050;-44
2023/01/09 04:24:53;;;;;;;13.98;5.45;;;;;;;-14.07;62.90;101202.50;5093772;28;20064;-43
2023/01/09 04:27:38;;;;;;;14.27;4.55;;;;;;;-14.04;63.20;101202.78;5071698;28;20435;-43
2023/01/09 04:30:23;;;;;;;15.15;6.00;;;;;;;-14.02;62.57;101209.66;5084632;28;20048;-43
2023/01/09 04:33:08;;;;;;;14.23;3.67;;;;;;;-13.88;63.04;101206.75;5091140;28;20055;-43
2023/01/09 04:35:52;;;;;;;12.70;4.85;;;;;;;-13.78;63.43;101210.91;5097658;28;20043;-44
2023/01/09 04:38:37;;;;;;;12.18;4.35;;;;;;;-13.79;62.43;101217.53;5079706;28;20113;-44
2023/01/09 04:44:27;;;;;;;17.52;6.55;;;;;;;-13.88;62.41;101214.25;5090282;28;20040;-43
2023/01/09 04:47:31;;;;;;;13.30;5.20;;;;;;;-13.84;62.99;101215.38;5082538;28;20047;-43
2023/01/09 04:50:53;;;;;;;17.67;5.40;;;;;;;-13.86;63.18;101220.25;5088032;28;20043;-42
2023/01/09 04:53:37;;;;;;;18.00;5.88;;;;;;;-13.93;62.85;101232.09;5082941;28;20040;-44
2023/01/09 04:56:03;;;;;;;17.70;6.07;;;;;;;-13.92;62.87;101232.19;5088578;28;20548;-43
2023/01/09 04:59:07;;;;;;;14.77;6.15;;;;;;;-13.88;63.08;101229.25;5086023;28;20040;-43
2023/01/09 05:01:41;;;;;;;17.15;5.68;;;;;;;-13.84;62.71;101238.75;5066671;28;20390;-44
2023/01/09 05:04:25;;;;;;;12.45;4.88;;;;;;;-13.95;62.10;101223.56;5047351;28;20059;-44
2023/01/09 05:07:10;;;;;;;10.90;4.65;;;;;;;-14.00;62.86;101222.28;5064705;28;20213;-43
2023/01/09 05:09:54;;;;;;;12.82;5.20;;;;;;;-14.00;62.98;101227.28;5065598;28;20072;-42
2023/01/09 05:12:39;;;;;;;12.25;5.38;;;;;;;-13.99;62.29;101231.56;5051807;28;20619;-45
2023/01/09 05:15:27;;;;;;;17.65;5.75;;;;;;;-13.99;62.89;101231.56;5043741;28;20052;-44
2023/01/09 05:17:53;;;;;;;16.00;5.18;;;;;;;-14.03;62.41;101232.91;5045574;28;20059;-43
2023/01/09 05:20:37;;;;;;;14.02;5.00;;;;;;;-14.00;63.34;101232.28;5063179;28;20508;-44
2023/01/09 05:23:22;;;;;;;15.38;5.80;;;;;;;-14.07;63.32;101230.00;5044003;28;20053;-42
2023/01/09 05:25:48;;;;;;;19.58;6.25;;;;;;;-14.10;62.35;101237.22;5046110;28;20060;-43
2023/01/09 05:28:14;;;;;;;17.63;7.03;;;;;;;-14.42;63.29;101196.97;5044448;28;20041;-45
2023/01/09 05:31:18;;;;;;;23.50;6.80;;;;;;;-14.19;63.64;101240.69;5042249;28;20037;-45
2023/01/09 05:34:03;;;;;;;20.08;6.93;;;;;;;-14.17;63.74;101235.81;5056985;28;20091;-44
2023/01/09 05:36:29;;;;;;;21.48;6.60;;;;;;;-14.13;63.25;101236.97;5062305;28;20041;-44
2023/01/09 05:38:56;;;;;;;19.15;7.15;;;;;;;-14.17;62.91;101258.28;5064737;28;20041;-44
2023/01/09 05:41:41;;;;;;;18.23;6.65;;;;;;;-14.10;63.22;101247.22;5012638;28;20033;-43
2023/01/09 05:44:28;;;;;;;18.05;6.18;;;;;;;-14.02;62.57;101248.75;5037613;28;20528;-43
2023/01/09 05:47:12;;;;;;;20.88;6.15;;;;;;;-14.01;62.38;101250.53;5058345;28;20047;-44
2023/01/09 05:49:38;;;;;;;16.63;6.35;;;;;;;-13.90;62.99;101255.72;5043280;28;20539;-45
2023/01/09 05:52:41;;;;;;;12.82;5.15;;;;;;;-13.82;62.77;101253.91;5043352;28;20068;-45
2023/01/09 05:55:26;;;;;;;18.15;6.15;;;;;;;-13.64;62.42;101259.56;5044145;28;20033;-44
2023/01/09 05:58:11;;;;;;;20.17;6.13;;;;;;;-13.84;62.10;101202.88;5048962;28;20508;-43
2023/01/09 06:01:33;;;;;;;25.98;6.95;;;;;;;-13.50;61.88;101266.66;5054986;28;20547;-43
2023/01/09 06:03:59;;;;;;;15.65;5.93;;;;;;;-13.45;62.33;101255.44;5053177;28;20132;-44
2023/01/09 06:07:03;;;;;;;17.73;5.43;;;;;;;-13.41;62.49;101253.31;5058977;28;20424;-43
2023/01/09 06:09:30;;;;;;;25.05;7.43;;;;;;;-13.27;61.63;101261.97;5059684;28;20077;-43
2023/01/09 06:11:56;;;;;;;19.20;7.95;;;;;;;-13.17;62.08;101258.63;5049593;28;20037;-44
2023/01/09 06:14:40;;;;;;;23.15;6.88;;;;;;;-13.07;62.15;101272.00;5024792;28;20547;-44
2023/01/09 06:17:06;;;;;;;22.48;5.90;;;;;;;-13.07;62.11;101266.13;5047822;28;20037;-44
2023/01/09 06:19:52;;;;;;;23.05;7.38;;;;;;;-13.11;62.06;101276.66;5047651;28;20576;-43
2023/01/09 06:22:55;;;;;;;16.33;6.07;;;;;;;-13.11;61.92;101274.16;5039115;28;20040;-44
2023/01/09 06:25:58;;;;;;;15.32;5.93;;;;;;;-13.09;61.32;101273.50;5048713;28;20124;-44
2023/01/09 06:29:01;;;;;;;15.95;5.32;;;;;;;-13.07;61.22;101287.00;5050746;28;20037;-48
2023/01/09 06:31:45;;;;;;;12.20;4.32;;;;;;;-13.25;61.32;101237.09;5029477;28;20045;-45
2023/01/09 06:34:11;;;;;;;7.10;2.47;;;;;;;-13.17;61.12;101278.63;5047176;28;20052;-42
2023/01/09 06:36:57;;;;;;;14.65;3.90;;;;;;;-13.24;60.81;101289.78;5042487;28;20056;-44
2023/01/09 06:40:00;;;;;;;12.95;4.72;;;;;;;-13.28;60.79;101289.34;5044669;28;20037;-45
2023/01/09 06:42:26;;;;;;;14.35;4.28;;;;;;;-13.46;61.40;101261.16;5042333;28;20037;-44
2023/01/09 06:44:52;;;;;;;15.00;4.70;;;;;;;-13.11;61.11;101292.50;5037655;28;20099;-44
2023/01/09 06:47:38;;;;;;;9.88;4.15;;;;;;;-13.32;60.90;101223.19;5041173;28;20050;-43
2023/01/09 06:51:00;;;;;;;11.98;4.18;;;;;;;-12.82;61.46;101297.44;5034822;28;20047;-43
2023/01/09 06:53:44;;;;;;;10.25;4.57;;;;;;;-13.04;60.10;101302.31;5029780;28;20061;-45
2023/01/09 06:56:28;;;;;;;10.73;4.18;;;;;;;-13.15;60.08;101304.66;5030317;28;20068;-44
2023/01/09 06:59:13;;;;;;;14.27;3.97;;;;;;;-13.15;59.89;101314.69;5012250;28;20547;-44
2023/01/09 07:02:17;;;;;;;12.52;4.63;;;;;;;-13.30;60.08;101311.75;5047514;28;20041;-45
2023/01/09 07:05:20;;;;;;;8.30;4.10;;;;;;;-13.23;60.01;101321.53;5041664;28;20606;-46
2023/01/09 07:07:46;;;;;;;11.60;4.03;;;;;;;-12.86;60.27;101320.47;5041334;28;20072;-44
2023/01/09 07:10:30;;;;;;;18.50;5.28;;;;;;;-12.64;60.25;101321.53;5048567;28;20032;-44
2023/01/09 07:13:34;;;;;;;15.68;6.07;;;;;;;-12.49;59.81;101315.28;5035048;28;20810;-45
2023/01/09 07:16:18;;;;;;;11.05;4.03;;;;;;;-12.81;59.65;101278.28;5041693;28;20041;-47
2023/01/09 07:18:44;;;;;;;10.95;4.07;;;;;;;-12.61;59.70;101320.91;5047948;28;20064;-44
2023/01/09 07:21:28;;;;;;;5.97;3.00;;;;;;;-12.46;59.48;101319.69;5034577;28;20547;-43
2023/01/09 07:23:54;;;;;;;12.30;3.63;;;;;;;-12.52;58.87;101321.66;5046146;28;20063;-44
2023/01/09 07:26:57;;;;;;;14.55;5.10;;;;;;;-12.21;59.19;101325.06;5046403;28;20119;-45
2023/01/09 07:29:42;;;;;;;15.02;5.03;;;;;;;-11.97;59.00;101327.03;5034056;28;20069;-44
2023/01/09 07:32:08;;;;;;;18.02;4.35;;;;;;;-12.02;59.29;101328.31;5033650;28;20067;-44
2023/01/09 07:35:11;;;;;;;15.73;4.82;;;;;;;-12.16;58.95;101324.69;5041046;28;20471;-43
2023/01/09 07:38:14;;;;;;;10.30;3.78;;;;;;;-12.09;58.89;101326.06;5040536;28;20410;-45
2023/01/09 07:40:40;;;;;;;10.35;4.50;;;;;;;-11.88;58.85;101329.44;5040144;28;20049;-44
2023/01/09 07:43:25;;;;;;;16.13;4.13;;;;;;;-11.68;58.66;101336.88;5034736;28;20463;-45
2023/01/09 07:45:50;;;;;;;11.05;4.07;;;;;;;-11.71;58.19;101335.00;5028701;28;20037;-45
2023/01/09 07:48:35;;;;;;;11.55;4.72;;;;;;;-11.64;58.42;101339.75;5039627;28;20040;-46
2023/01/09 07:51:41;;;;;;;16.45;5.70;;;;;;;-11.52;57.93;101354.03;5030620;28;20517;-47
2023/01/09 07:54:29;;;;;;;16.52;5.10;;;;;;;-11.61;57.57;101349.13;5067330;28;20034;-48
2023/01/09 07:57:14;;;;;;;13.63;5.18;;;;;;;-11.67;57.46;101346.16;5039875;28;20047;-45
2023/01/09 07:59:59;;;;;;;13.35;4.43;;;;;;;-11.71;57.22;101347.53;5029611;28;20061;-44
2023/01/09 08:02:26;;;;;;;17.60;6.28;;;;;;;-11.72;57.55;101350.78;5027087;28;20411;-45
2023/01/09 08:04:52;;;;;;;25.30;7.57;;;;;;;-11.64;56.78;101339.75;5060378;28;20055;-46
2023/01/09 08:07:55;;;;;;;16.27;5.68;;;;;;;-11.60;57.17;101340.88;5047934;28;20618;-46
2023/01/09 08:10:40;;;;;;;23.45;7.68;;;;;;;-11.55;56.48;101349.63;5051830;28;20045;-45
2023/01/09 08:13:24;;;;;;;21.67;7.85;;;;;;;-12.05;56.54;101277.94;5054935;28;20041;-44
2023/01/09 08:15:50;;;;;;;19.52;6.75;;;;;;;-11.69;56.44;101353.56;5059042;28;20127;-46
2023/01/09 08:18:16;;;;;;;20.27;7.68;;;;;;;-11.55;57.03;101343.72;5047796;28;20147;-44
2023/01/09 08:20:42;;;;;;;17.92;7.28;;;;;;;-11.58;56.15;101336.84;5046584;28;20044;-46
2023/01/09 08:23:45;;;;;;;21.85;7.90;;;;;;;-11.50;56.32;101344.97;5033697;28;20043;-49
2023/01/09 08:26:48;;;;;;;14.40;6.47;;;;;;;-11.39;56.04;101336.66;5041905;28;20206;-44
2023/01/09 08:29:32;;;;;;;21.30;7.88;;;;;;;-11.71;55.46;101304.91;5023707;28;20504;-45
2023/01/09 08:31:58;;;;;;;20.23;7.47;;;;;;;-11.29;55.86;101349.19;5046740;28;20097;-45
2023/01/09 08:34:24;;;;;;;17.98;7.03;;;;;;;-11.23;55.88;101337.13;5047732;28;20123;-45
2023/01/09 08:37:08;;;;;;;21.88;6.70;;;;;;;-11.14;55.32;101337.81;5042771;28;20033;-45
2023/01/09 08:39:34;;;;;;;20.92;8.32;;;;;;;-11.23;55.20;101310.38;5034323;28;20033;-44
2023/01/09 08:47:48;;;;;;;14.18;4.35;;;;;;;-11.18;54.50;101346.75;5035085;28;20045;-47
2023/01/09 08:50:33;;;;;;;18.05;7.03;;;;;;;-11.27;54.21;101340.16;5027006;28;20106;-44
2023/01/09 08:53:36;;;;;;;15.95;6.13;;;;;;;-11.22;54.42;101343.91;5035872;28;20099;-45
2023/01/09 08:56:21;;;;;;;12.82;4.85;;;;;;;-11.18;53.79;101345.88;5028332;28;20037;-53
2023/01/09 08:59:43;;;;;;;14.35;5.95;;;;;;;-11.36;54.32;101351.97;5031740;28;20094;-45
2023/01/09 09:02:29;;;;;;;10.88;4.78;;;;;;;-11.51;53.91;101310.63;5031420;28;20183;-46
2023/01/09 09:04:55;;;;;;;14.52;4.55;;;;;;;-11.34;53.57;101340.41;5030146;28;20128;-46
2023/01/09 09:07:25;;;;;;;14.85;5.60;;;;;;;-11.51;53.52;101298.94;5043255;28;20052;-43
2023/01/09 09:10:10;;;;;;;13.20;5.47;;;;;;;-11.16;53.49;101296.69;5041529;28;20044;-44
2023/01/09 09:12:54;;;;;;;11.90;4.60;;;;;;;-10.41;53.36;101341.81;5014190;28;20045;-44
2023/01/09 09:15:23;;;;;;;12.27;5.10;;;;;;;-10.86;52.79;101278.94;5043692;28;20445;-47
2023/01/09 09:18:08;;;;;;;12.52;5.20;;;;;;;-10.86;52.25;101334.19;5036965;28;20514;-45
2023/01/09 09:20:53;;;;;;;13.73;5.55;;;;;;;-10.87;52.38;101337.44;5025053;28;20423;-49
2023/01/09 09:23:19;;;;;;;15.10;5.25;;;;;;;-10.62;51.83;101330.13;5036717;28;20051;-48
2023/01/09 09:25:45;;;;;;;13.15;4.97;;;;;;;-10.49;51.45;101294.25;5044211;28;20369;-46
2023/01/09 09:28:11;;;;;;;12.68;5.53;;;;;;;-9.36;51.26;101339.41;5039854;28;20045;-45
2023/01/09 09:31:14;;;;;;;13.73;5.30;;;;;;;-9.20;50.89;101337.22;5044169;28;20045;-51
2023/01/09 09:33:40;;;;;;;16.85;5.90;;;;;;;-8.73;50.14;101329.56;5037992;28;20424;-45
2023/01/09 09:36:25;;;;;;;16.30;5.30;;;;;;;-9.17;49.29;101329.03;5009543;28;20060;-47
2023/01/09 09:39:09;;;;;;;15.00;5.47;;;;;;;-9.62;50.30;101336.69;5043901;28;20069;-46
2023/01/09 09:45:04;;;;;;;19.42;6.15;;;;;;;-8.50;48.55;101338.69;5030449;28;20043;-47
2023/01/09 09:48:07;;;;;;;14.02;4.05;;;;;;;-7.33;48.22;101327.06;5043718;28;20045;-46
2023/01/09 09:50:55;;;;;;;11.38;4.55;;;;;;;-6.81;47.06;101333.72;5039057;28;20086;-44
2023/01/09 09:53:26;;;;;;;13.18;5.10;;;;;;;-6.57;45.94;101327.59;5028034;28;20094;-46
2023/01/09 09:56:48;;;;;;;13.07;5.10;;;;;;;-6.39;46.37;101332.88;5049891;28;20424;-45
2023/01/09 09:59:33;;;;;;;14.40;5.50;;;;;;;-7.61;46.13;101326.09;5044809;28;20038;-44
2023/01/09 10:02:37;;;;;;;10.60;4.00;;;;;;;-8.92;47.41;101329.06;5046079;28;20047;-45
2023/01/09 10:05:33;;;;;;;12.90;4.82;;;;;;;-10.24;48.19;101252.56;5044776;28;20041;-44
2023/01/09 10:08:31;;;;;;;12.88;4.82;;;;;;;-10.14;48.42;101329.50;5030286;28;20057;-44
2023/01/09 10:11:34;;;;;;;13.88;5.05;;;;;;;-10.53;48.86;101332.47;5048347;28;20047;-47
2023/01/09 10:14:37;;;;;;;21.65;5.40;;;;;;;-10.85;49.49;101330.03;5046210;28;20080;-46
2023/01/09 10:17:59;;;;;;;17.15;4.47;;;;;;;-11.24;50.05;101333.72;5038487;28;20044;-44
2023/01/09 10:20:47;;;;;;;11.80;5.05;;;;;;;-11.75;50.55;101349.72;5036198;28;20055;-46
2023/01/09 10:24:25;;;;;;;11.85;4.72;;;;;;;-12.26;51.71;101336.34;5025610;28;20049;-47
2023/01/09 10:27:28;;;;;;;13.40;4.72;;;;;;;-12.27;52.06;101332.06;5004780;28;20061;-45
2023/01/09 10:30:21;;;;;;;12.13;4.43;;;;;;;-12.23;52.08;101337.47;5044340;28;20047;-45
2023/01/09 10:33:43;;;;;;;8.18;3.90;;;;;;;-12.43;52.53;101342.47;5050910;28;20036;-44
2023/01/09 10:36:46;;;;;;;13.27;4.57;;;;;;;-12.66;53.07;101335.53;5034257;28;20501;-43
2023/01/09 10:40:09;;;;;;;12.35;4.38;;;;;;;-12.60;53.14;101343.56;5037287;28;20063;-42
2023/01/09 10:43:01;;;;;;;13.88;4.53;;;;;;;-12.95;53.34;101265.53;5009273;28;20042;-46
2023/01/09 10:45:51;;;;;;;15.40;5.05;;;;;;;-12.39;53.38;101348.59;4989680;28;20132;-46
2023/01/09 10:48:37;;;;;;;11.85;4.40;;;;;;;-12.40;53.36;101354.38;5013224;28;20081;-44
2023/01/09 10:51:41;;;;;;;12.07;4.78;;;;;;;-12.55;53.89;101353.97;4995587;28;20041;-45
2023/01/09 10:54:12;;;;;;;10.95;4.80;;;;;;;-12.42;53.78;101344.22;4999082;28;20148;-45
2023/01/09 10:57:01;;;;;;;11.63;4.78;;;;;;;-12.08;53.78;101350.34;4993201;28;20042;-47
2023/01/09 10:59:45;;;;;;;12.15;4.40;;;;;;;-11.92;53.52;101342.44;4996272;28;20128;-45
2023/01/09 11:03:07;;;;;;;16.10;5.47;;;;;;;-11.95;53.65;101343.09;4990687;28;20053;-45
2023/01/09 11:05:56;;;;;;;9.88;3.65;;;;;;;-12.05;53.75;101340.59;5012275;28;20588;-45
2023/01/09 11:08:48;;;;;;;9.45;4.13;;;;;;;-12.38;53.89;101313.66;5023698;28;20045;-44
2023/01/09 11:12:10;;;;;;;16.10;4.53;;;;;;;-12.09;54.30;101354.50;5009054;28;20038;-44
2023/01/09 11:14:55;;;;;;;7.70;2.80;;;;;;;-12.14;54.60;101354.91;5033609;28;20037;-45
2023/01/09 11:17:24;;;;;;;13.90;4.15;;;;;;;-11.99;54.59;101352.75;5041090;28;20064;-44
2023/01/09 11:20:21;;;;;;;10.88;4.03;;;;;;;-11.94;54.77;101351.50;5029309;28;20047;-44
2023/01/09 11:23:14;;;;;;;19.05;5.00;;;;;;;-12.13;54.95;101357.50;5044126;28;20061;-44
2023/01/09 11:25:54;;;;;;;8.73;2.92;;;;;;;-12.18;55.04;101360.38;5042553;28;20069;-44
2023/01/09 11:28:38;;;;;;;11.40;4.30;;;;;;;-12.61;55.57;101329.28;5034018;28;20084;-44
2023/01/09 11:31:04;;;;;;;9.75;3.67;;;;;;;-12.25;55.49;101366.53;5032430;28;21076;-45
2023/01/09 11:34:26;;;;;;;17.55;3.80;;;;;;;-12.01;55.36;101360.16;5047055;28;20049;-44
2023/01/09 11:37:12;;;;;;;9.80;3.55;;;;;;;-11.98;54.93;101362.88;5041304;28;20068;-44
2023/01/09 11:39:58;;;;;;;9.02;3.47;;;;;;;-11.82;54.91;101360.88;5028788;28;20555;-43
2023/01/09 11:43:11;;;;;;;13.18;4.22;;;;;;;-11.37;55.18;101365.28;5027984;28;20051;-45
2023/01/09 11:45:33;;;;;;;11.18;3.50;;;;;;;-10.93;53.66;101368.75;5038236;28;20103;-45
2023/01/09 11:48:55;;;;;;;11.50;3.83;;;;;;;-10.85;53.48;101366.09;5026604;28;20127;-45
2023/01/09 11:51:41;;;;;;;8.60;3.95;;;;;;;-10.99;53.11;101366.63;5037417;28;20052;-45
2023/01/09 11:54:35;;;;;;;12.20;4.65;;;;;;;-11.34;53.26;101358.84;5034091;28;20045;-45
2023/01/09 11:57:20;;;;;;;16.73;3.90;;;;;;;-11.32;53.72;101362.38;5033067;28;20041;-45
2023/01/09 12:00:05;;;;;;;16.98;3.92;;;;;;;-10.99;52.54;101359.09;5030534;28;20642;-45
2023/01/09 12:03:27;;;;;;;9.45;2.85;;;;;;;-11.25;53.25;101356.22;5036371;28;20048;-44
2023/01/09 12:06:36;;;;;;;5.13;2.45;;;;;;;-11.90;53.11;101356.88;5057800;28;20071;-46
2023/01/09 12:09:45;;;;;;;12.52;3.78;;;;;;;-11.99;53.73;101363.66;5029355;28;20042;-44
2023/01/09 12:12:49;;;;;;;14.73;3.88;;;;;;;-11.93;53.32;101359.13;5051678;28;20037;-46
2023/01/09 12:15:53;;;;;;;9.55;4.10;;;;;;;-11.96;53.79;101366.41;5036843;28;20033;-44
2023/01/09 12:19:15;;;;;;;13.80;4.22;;;;;;;-11.90;53.79;101368.53;5068482;28;20942;-46
2023/01/09 12:22:00;;;;;;;13.10;4.47;;;;;;;-11.84;53.83;101362.41;5047695;28;20041;-44
2023/01/09 12:25:03;;;;;;;9.73;4.13;;;;;;;-12.07;54.05;101360.53;5015577;28;20045;-45
2023/01/09 12:28:06;;;;;;;6.30;3.25;;;;;;;-12.27;54.37;101359.63;5035549;28;20072;-46
2023/01/09 12:30:44;;;;;;;12.57;4.80;;;;;;;-12.69;55.27;101361.94;5037376;28;20068;-46
2023/01/09 12:33:24;;;;;;;8.23;4.15;;;;;;;-13.16;55.86;101327.94;5040069;28;20041;-44
2023/01/09 12:36:18;;;;;;;12.32;4.50;;;;;;;-13.26;56.21;101367.94;5043250;28;20037;-45
2023/01/09 12:39:37;;;;;;;9.27;3.83;;;;;;;-13.62;56.53;101360.59;5040965;28;20037;-45
2023/01/09 12:42:43;;;;;;;9.43;3.97;;;;;;;-13.78;57.46;101371.75;5020458;28;20136;-47
2023/01/09 12:46:05;;;;;;;9.40;3.95;;;;;;;-13.99;57.51;101359.88;5042133;28;20072;-46
2023/01/09 12:49:09;;;;;;;8.52;2.83;;;;;;;-14.10;58.21;101368.03;5042844;28;20128;-43
2023/01/09 12:52:22;;;;;;;9.70;2.75;;;;;;;-14.27;58.95;101374.00;5044748;28;20277;-45
2023/01/09 12:55:26;;;;;;;10.50;3.10;;;;;;;-14.48;58.49;101362.09;5026639;28;20176;-44
2023/01/09 12:58:13;;;;;;;5.38;2.90;;;;;;;-14.51;58.91;101371.81;5015032;28;20160;-45
2023/01/09 13:01:16;;;;;;;10.65;4.68;;;;;;;-14.62;59.20;101369.97;5040255;28;20095;-43
2023/01/09 13:04:16;;;;;;;8.45;2.85;;;;;;;-14.69;59.24;101365.13;5039978;28;20048;-44
2023/01/09 13:07:20;;;;;;;7.50;3.13;;;;;;;-14.75;59.92;101367.06;5038708;28;20537;-45
2023/01/09 13:10:42;;;;;;;4.93;3.03;;;;;;;-14.81;60.46;101386.47;5033832;28;20714;-44